Time;durP1;ratioP1;P1;durP2;ratioP2;P2;SDS_P1;SDS_P2;PMS_P1;PMS_P2;Temp;Humidity;BMP_temperature;BMP_pressure;BME280_temperature;BME280_humidity;BME280_pressure;Samples;Min_cycle;Max_cycle;Signal;HPM_P1;HPM_P2
2023/03/08 00:00:36;;;;;;;8.70;4.28;;;0.80;99.90;;;;;;5031882;28;20283;-59
2023/03/08 00:03:02;;;;;;;9.82;3.97;;;0.80;99.90;;;;;;5046087;28;20060;-57
2023/03/08 00:05:28;;;;;;;7.72;3.25;;;0.80;99.90;;;;;;5037608;28;20040;-59
2023/03/08 00:07:54;;;;;;;6.75;3.08;;;0.80;99.90;;;;;;5031033;28;20164;-59
2023/03/08 00:10:21;;;;;;;6.45;2.97;;;0.80;99.90;;;;;;5031235;28;20587;-58
2023/03/08 00:12:46;;;;;;;7.60;1.95;;;0.90;99.90;;;;;;5038263;28;20495;-56
2023/03/08 00:15:12;;;;;;;2.33;0.60;;;0.90;99.90;;;;;;5014493;28;20032;-57
2023/03/08 00:17:39;;;;;;;4.15;0.88;;;0.90;99.90;;;;;;5043241;28;20488;-59
2023/03/08 00:20:07;;;;;;;1.40;0.63;;;0.90;99.90;;;;;;5029511;28;20078;-59
2023/03/08 00:22:40;;;;;;;2.88;0.45;;;1.00;99.90;;;;;;5035178;28;20658;-59
2023/03/08 00:25:10;;;;;;;1.55;0.50;;;1.10;99.90;;;;;;5045785;28;20453;-57
2023/03/08 00:27:36;;;;;;;2.92;0.50;;;1.00;99.90;;;;;;5027997;28;20040;-56
2023/03/08 00:30:05;;;;;;;1.08;0.30;;;1.10;99.90;;;;;;5044851;28;20396;-57
2023/03/08 00:32:31;;;;;;;0.70;0.38;;;1.10;99.90;;;;;;5032773;28;20461;-57
2023/03/08 00:34:57;;;;;;;3.60;0.30;;;1.10;99.90;;;;;;5040065;28;20045;-57
2023/03/08 00:37:22;;;;;;;2.95;0.40;;;1.10;99.90;;;;;;5015963;28;20396;-57
2023/03/08 00:39:52;;;;;;;1.55;0.40;;;1.10;99.90;;;;;;5023599;28;20048;-58
2023/03/08 00:42:19;;;;;;;0.60;0.17;;;1.10;99.90;;;;;;5008505;28;20140;-59
2023/03/08 00:44:45;;;;;;;2.40;0.40;;;1.20;99.90;;;;;;5009688;28;20091;-58
2023/03/08 00:47:11;;;;;;;0.95;0.30;;;1.20;99.90;;;;;;5047522;28;20483;-56
2023/03/08 00:49:36;;;;;;;1.85;0.35;;;1.20;99.90;;;;;;5041049;28;20040;-57
2023/03/08 00:52:02;;;;;;;1.30;0.50;;;1.20;99.90;;;;;;5026413;28;20044;-55
2023/03/08 00:54:31;;;;;;;1.20;0.25;;;1.20;99.90;;;;;;5019973;28;20052;-57
2023/03/08 00:56:57;;;;;;;0.95;0.30;;;1.20;99.90;;;;;;5024248;28;20369;-59
2023/03/08 00:59:22;;;;;;;0.70;0.20;;;1.20;99.90;;;;;;5021612;28;20090;-58
2023/03/08 01:01:48;;;;;;;1.13;0.38;;;1.20;99.90;;;;;;5030518;28;20037;-59
2023/03/08 01:04:14;;;;;;;3.67;0.70;;;1.20;99.90;;;;;;5036174;28;20145;-58
2023/03/08 01:06:42;;;;;;;2.63;0.50;;;1.20;99.90;;;;;;5033791;28;20500;-58
2023/03/08 01:09:08;;;;;;;3.22;1.40;;;1.20;99.90;;;;;;5035610;28;20052;-57
2023/03/08 01:11:35;;;;;;;4.18;1.60;;;1.20;99.90;;;;;;5040904;28;20040;-58
2023/03/08 01:14:01;;;;;;;3.38;1.50;;;1.20;99.90;;;;;;5044949;28;20060;-58
2023/03/08 01:16:30;;;;;;;2.95;1.13;;;1.20;99.90;;;;;;5022378;28;20045;-60
2023/03/08 01:18:56;;;;;;;2.80;1.15;;;1.20;99.90;;;;;;5035509;28;20432;-58
2023/03/08 01:21:23;;;;;;;1.60;0.52;;;1.20;99.90;;;;;;5036444;28;20054;-58
2023/03/08 01:23:50;;;;;;;2.63;0.40;;;1.20;99.90;;;;;;5036883;28;20522;-56
2023/03/08 01:26:18;;;;;;;5.10;0.60;;;1.20;99.90;;;;;;5020387;28;20045;-58
2023/03/08 01:28:45;;;;;;;3.08;0.40;;;1.20;99.90;;;;;;5025201;28;20048;-57
2023/03/08 01:31:12;;;;;;;2.63;0.50;;;1.20;99.90;;;;;;5027637;28;20072;-56
2023/03/08 01:33:38;;;;;;;1.95;0.60;;;1.20;99.90;;;;;;5037146;28;20041;-59
2023/03/08 01:36:06;;;;;;;2.25;0.70;;;1.20;99.90;;;;;;5023199;28;20044;-59
2023/03/08 01:38:32;;;;;;;1.98;0.65;;;1.20;99.90;;;;;;5046850;28;20049;-58
2023/03/08 01:41:00;;;;;;;9.50;2.00;;;1.20;99.90;;;;;;5040710;28;20049;-59
2023/03/08 01:43:27;;;;;;;3.10;1.17;;;1.20;99.90;;;;;;5040428;28;21155;-57
2023/03/08 01:46:21;;;;;;;4.07;1.23;;;1.20;99.90;;;;;;5024823;28;20104;-59
2023/03/08 01:48:58;;;;;;;4.40;1.25;;;1.20;99.90;;;;;;5025153;28;20047;-59
2023/03/08 01:51:59;;;;;;;2.75;0.80;;;1.20;99.90;;;;;;5035446;28;20071;-57
2023/03/08 01:54:31;;;;;;;3.25;0.90;;;1.20;99.90;;;;;;5039423;28;20463;-57
2023/03/08 01:57:36;;;;;;;1.92;0.65;;;1.20;99.90;;;;;;5042401;28;20511;-59
2023/03/08 02:00:23;;;;;;;3.33;0.70;;;1.20;99.90;;;;;;5046122;28;20059;-59
2023/03/08 02:02:56;;;;;;;2.78;0.73;;;1.20;99.90;;;;;;5038649;28;20099;-60
2023/03/08 02:05:23;;;;;;;5.95;0.65;;;1.20;99.90;;;;;;5044567;28;20048;-60
2023/03/08 02:07:49;;;;;;;2.20;0.80;;;1.10;99.90;;;;;;5043603;28;20045;-59
2023/03/08 02:10:16;;;;;;;2.92;0.60;;;1.10;99.90;;;;;;5029081;28;20048;-57
2023/03/08 02:12:42;;;;;;;4.00;0.63;;;1.10;99.90;;;;;;5049176;28;20044;-58
2023/03/08 02:15:11;;;;;;;2.92;0.75;;;1.10;99.90;;;;;;5027238;28;20060;-57
2023/03/08 02:17:38;;;;;;;1.58;0.43;;;1.10;99.90;;;;;;5064540;28;20052;-59
2023/03/08 02:20:23;;;;;;;4.30;0.68;;;1.10;99.90;;;;;;5041184;28;20041;-58
2023/03/08 02:22:52;;;;;;;3.90;0.60;;;1.10;99.90;;;;;;5039840;28;20038;-59
2023/03/08 02:25:20;;;;;;;2.10;0.60;;;1.10;99.90;;;;;;5034719;28;20044;-58
2023/03/08 02:27:47;;;;;;;3.10;0.47;;;1.00;99.90;;;;;;5048706;28;20044;-58
2023/03/08 02:30:16;;;;;;;7.63;1.55;;;1.00;99.90;;;;;;5046392;28;20507;-57
2023/03/08 02:32:41;;;;;;;3.35;0.60;;;1.00;99.90;;;;;;5045890;28;20419;-58
2023/03/08 02:35:08;;;;;;;3.50;0.68;;;0.90;99.90;;;;;;5010258;28;20041;-60
2023/03/08 02:37:34;;;;;;;3.00;0.50;;;0.80;99.90;;;;;;5039646;28;20111;-59
2023/03/08 02:40:00;;;;;;;2.63;0.80;;;0.80;99.90;;;;;;5027461;28;20041;-57
2023/03/08 02:42:26;;;;;;;2.47;0.40;;;0.70;99.90;;;;;;5035762;28;20565;-56
2023/03/08 02:44:51;;;;;;;1.90;0.52;;;0.60;99.90;;;;;;5044450;28;20033;-59
2023/03/08 02:47:17;;;;;;;2.75;1.13;;;0.60;99.90;;;;;;5033034;28;20086;-59
2023/03/08 02:49:43;;;;;;;6.88;1.08;;;0.60;99.90;;;;;;5047302;28;20060;-59
2023/03/08 02:52:08;;;;;;;2.05;0.57;;;0.60;99.90;;;;;;5028783;28;20438;-58
2023/03/08 02:54:34;;;;;;;4.43;0.55;;;0.50;99.90;;;;;;5023286;28;20396;-57
2023/03/08 02:57:00;;;;;;;2.65;0.70;;;0.50;99.90;;;;;;5042681;28;20048;-59
2023/03/08 02:59:25;;;;;;;2.58;0.80;;;0.50;99.90;;;;;;5043465;28;20045;-59
2023/03/08 03:01:51;;;;;;;4.60;0.70;;;0.50;99.90;;;;;;5030746;28;20095;-59
2023/03/08 03:04:17;;;;;;;5.30;0.63;;;0.50;99.90;;;;;;5029719;28;20060;-59
2023/03/08 03:06:43;;;;;;;1.85;0.47;;;0.50;99.90;;;;;;5022794;28;20454;-58
2023/03/08 03:09:09;;;;;;;4.03;0.63;;;0.40;99.90;;;;;;5035349;28;20048;-55
2023/03/08 03:11:35;;;;;;;1.70;0.50;;;0.40;99.90;;;;;;5033819;28;20155;-56
2023/03/08 03:14:01;;;;;;;7.13;1.75;;;0.30;99.90;;;;;;5039281;28;20041;-59
2023/03/08 03:16:27;;;;;;;4.07;0.70;;;0.30;99.90;;;;;;5027565;28;20846;-58
2023/03/08 03:18:54;;;;;;;4.65;1.17;;;0.30;99.90;;;;;;5023513;28;20255;-58
2023/03/08 03:21:21;;;;;;;4.63;0.82;;;0.20;99.90;;;;;;5032847;22;20038;-58
2023/03/08 03:23:47;;;;;;;6.85;1.13;;;0.20;99.90;;;;;;5023019;28;20405;-59
2023/03/08 03:26:20;;;;;;;3.15;0.90;;;0.20;99.90;;;;;;5023917;28;20137;-60
2023/03/08 03:28:46;;;;;;;3.30;0.80;;;0.20;99.90;;;;;;5013254;28;20443;-60
2023/03/08 03:31:15;;;;;;;2.90;0.80;;;0.20;99.90;;;;;;5016897;28;20037;-58
2023/03/08 03:33:42;;;;;;;3.47;0.98;;;0.20;99.90;;;;;;5014903;28;20129;-60
2023/03/08 03:36:10;;;;;;;3.10;0.65;;;0.20;99.90;;;;;;5004567;28;20033;-60
2023/03/08 03:38:36;;;;;;;2.08;0.60;;;0.20;99.90;;;;;;5013158;28;20049;-59
2023/03/08 03:41:06;;;;;;;4.88;0.82;;;0.10;99.90;;;;;;5025045;28;20098;-59
2023/03/08 03:43:32;;;;;;;2.05;0.68;;;0.10;99.90;;;;;;5019115;28;20038;-60
2023/03/08 03:46:00;;;;;;;2.58;0.68;;;0.00;99.90;;;;;;5000019;28;20118;-56
2023/03/08 03:48:26;;;;;;;2.80;0.60;;;0.10;99.90;;;;;;5013349;28;20520;-59
2023/03/08 03:51:09;;;;;;;1.85;0.47;;;0.00;99.90;;;;;;5012070;28;20093;-57
2023/03/08 03:53:35;;;;;;;1.50;0.65;;;0.00;99.90;;;;;;5020158;28;20108;-59
2023/03/08 03:56:07;;;;;;;3.50;0.70;;;0.00;99.90;;;;;;5020929;28;20069;-59
2023/03/08 03:58:33;;;;;;;0.75;0.63;;;0.00;99.90;;;;;;5018406;28;20042;-59
2023/03/08 04:00:59;;;;;;;2.55;0.82;;;0.00;99.90;;;;;;5023932;28;20041;-60
2023/03/08 04:03:25;;;;;;;3.05;0.70;;;0.00;99.90;;;;;;5022882;28;20045;-60
2023/03/08 04:05:51;;;;;;;5.75;0.90;;;0.00;99.90;;;;;;5022695;28;20045;-60
2023/03/08 04:08:17;;;;;;;6.10;1.45;;;-0.10;99.90;;;;;;5018100;28;20521;-60
2023/03/08 04:10:43;;;;;;;1.77;0.50;;;-0.20;99.90;;;;;;5008935;28;20044;-57
2023/03/08 04:13:12;;;;;;;2.97;0.70;;;-0.20;99.90;;;;;;5022890;28;20120;-58
2023/03/08 04:15:37;;;;;;;3.28;0.70;;;-0.20;99.90;;;;;;5025811;28;20096;-59
2023/03/08 04:18:03;;;;;;;3.75;0.75;;;-0.20;99.90;;;;;;4997118;28;20161;-59
2023/03/08 04:20:29;;;;;;;1.25;0.75;;;-0.30;99.90;;;;;;5017697;28;20104;-60
2023/03/08 04:22:55;;;;;;;1.85;0.52;;;-0.30;99.90;;;;;;5034498;28;20092;-57
2023/03/08 04:25:20;;;;;;;4.13;0.85;;;-0.30;99.90;;;;;;5006481;28;20045;-61
2023/03/08 04:27:46;;;;;;;2.83;0.80;;;-0.30;99.90;;;;;;5021446;28;20456;-60
2023/03/08 04:30:13;;;;;;;4.38;0.75;;;-0.30;99.90;;;;;;5019910;28;20069;-57
2023/03/08 04:32:38;;;;;;;2.45;0.70;;;-0.40;99.90;;;;;;5000114;28;20048;-59
2023/03/08 04:35:04;;;;;;;2.70;0.80;;;-0.40;99.90;;;;;;5020110;28;20041;-60
2023/03/08 04:37:30;;;;;;;3.22;0.90;;;-0.40;99.90;;;;;;5001391;28;20049;-59
2023/03/08 04:39:56;;;;;;;2.72;1.17;;;-0.40;99.90;;;;;;5007471;28;20511;-58
2023/03/08 04:42:22;;;;;;;3.13;0.70;;;-0.30;99.90;;;;;;5019509;28;20052;-56
2023/03/08 04:44:47;;;;;;;2.65;0.63;;;-0.30;99.90;;;;;;5019763;28;20045;-60
2023/03/08 04:47:13;;;;;;;2.17;0.70;;;-0.30;99.90;;;;;;5017456;28;20125;-58
2023/03/08 04:49:39;;;;;;;4.93;1.52;;;-0.20;99.90;;;;;;5003112;28;20041;-58
2023/03/08 04:52:05;;;;;;;3.85;0.70;;;-0.20;99.90;;;;;;5018911;28;20060;-55
2023/03/08 04:54:30;;;;;;;1.45;0.40;;;-0.30;99.90;;;;;;5031251;28;20129;-58
2023/03/08 04:56:56;;;;;;;5.07;1.02;;;-0.30;99.90;;;;;;5000915;28;20500;-60
2023/03/08 04:59:22;;;;;;;4.45;0.70;;;-0.30;99.90;;;;;;5019266;28;20044;-60
2023/03/08 05:01:48;;;;;;;2.58;0.80;;;-0.30;99.90;;;;;;5017454;28;20037;-59
2023/03/08 05:04:14;;;;;;;4.43;0.75;;;-0.30;99.90;;;;;;5021489;28;20056;-59
2023/03/08 05:06:40;;;;;;;2.70;1.48;;;-0.30;99.90;;;;;;4995538;28;20511;-57
2023/03/08 05:09:06;;;;;;;4.10;0.90;;;-0.30;99.90;;;;;;5016575;28;20518;-59
2023/03/08 05:11:31;;;;;;;3.42;0.73;;;-0.30;99.90;;;;;;5016002;28;20052;-59
2023/03/08 05:13:58;;;;;;;2.37;1.13;;;-0.30;99.90;;;;;;5022593;28;20376;-58
2023/03/08 05:16:25;;;;;;;5.03;0.90;;;-0.30;99.90;;;;;;5004265;28;20372;-60
2023/03/08 05:18:51;;;;;;;3.60;0.80;;;-0.30;99.90;;;;;;5022639;28;20519;-57
2023/03/08 05:21:20;;;;;;;2.97;0.90;;;-0.30;99.90;;;;;;5015246;28;20045;-59
2023/03/08 05:23:46;;;;;;;3.40;0.85;;;-0.40;99.90;;;;;;5023688;28;20038;-60
2023/03/08 05:26:16;;;;;;;2.75;0.88;;;-0.40;99.90;;;;;;5018167;28;20065;-60
2023/03/08 05:28:42;;;;;;;2.55;0.70;;;-0.40;99.90;;;;;;5012628;28;20038;-59
2023/03/08 05:31:14;;;;;;;4.72;0.85;;;-0.40;99.90;;;;;;5018521;28;20048;-60
2023/03/08 05:33:41;;;;;;;3.70;1.10;;;-0.40;99.90;;;;;;5015775;28;20049;-58
2023/03/08 05:36:09;;;;;;;5.82;2.67;;;-0.40;99.90;;;;;;5032068;28;20054;-58
2023/03/08 05:38:34;;;;;;;3.25;1.00;;;-0.40;99.90;;;;;;5002507;28;20083;-59
2023/03/08 05:41:02;;;;;;;7.78;0.85;;;-0.40;99.90;;;;;;5019297;28;20037;-57
2023/03/08 05:43:28;;;;;;;4.88;2.00;;;-0.40;99.90;;;;;;5010210;28;20095;-60
2023/03/08 05:46:01;;;;;;;4.03;1.63;;;-0.40;99.90;;;;;;5018245;28;20141;-60
2023/03/08 05:48:26;;;;;;;3.38;1.00;;;-0.40;99.90;;;;;;5019695;28;20092;-57
2023/03/08 05:50:52;;;;;;;2.40;0.90;;;-0.40;99.90;;;;;;5022371;28;20080;-59
2023/03/08 05:53:19;;;;;;;5.00;1.38;;;-0.40;99.90;;;;;;5012602;28;20511;-59
2023/03/08 05:55:46;;;;;;;2.08;0.90;;;-0.30;99.90;;;;;;5013221;28;20050;-59
2023/03/08 05:58:11;;;;;;;7.65;2.38;;;-0.40;99.90;;;;;;4995872;28;20094;-59
2023/03/08 06:00:37;;;;;;;4.73;1.27;;;-0.40;99.90;;;;;;5015025;28;20053;-55
2023/03/08 06:03:03;;;;;;;2.88;1.13;;;-0.30;99.90;;;;;;5021742;28;20069;-55
2023/03/08 06:05:30;;;;;;;4.35;1.15;;;-0.30;99.90;;;;;;5014208;28;20446;-59
2023/03/08 06:07:56;;;;;;;7.17;1.93;;;-0.30;99.90;;;;;;5023056;28;20052;-59
2023/03/08 06:10:22;;;;;;;2.55;1.30;;;-0.30;99.90;;;;;;5018802;28;20042;-58
2023/03/08 06:12:48;;;;;;;7.00;1.40;;;-0.30;99.90;;;;;;5025091;28;20502;-58
2023/03/08 06:15:14;;;;;;;5.53;2.35;;;-0.30;99.90;;;;;;5021795;28;20391;-58
2023/03/08 06:17:40;;;;;;;4.55;1.45;;;-0.30;99.90;;;;;;5030944;28;20068;-59
2023/03/08 06:20:08;;;;;;;3.42;1.48;;;-0.40;99.90;;;;;;5019490;28;20130;-56
2023/03/08 06:22:33;;;;;;;2.05;1.00;;;-0.40;99.90;;;;;;5016847;28;20036;-57
2023/03/08 06:24:59;;;;;;;2.77;1.00;;;-0.40;99.90;;;;;;5002835;28;20050;-59
2023/03/08 06:27:25;;;;;;;4.43;1.48;;;-0.40;99.90;;;;;;5019611;28;20429;-57
2023/03/08 06:29:51;;;;;;;6.10;1.40;;;-0.40;99.90;;;;;;5001600;28;20038;-59
2023/03/08 06:32:17;;;;;;;4.10;1.15;;;-0.40;99.90;;;;;;5028149;28;20052;-59
2023/03/08 06:34:44;;;;;;;3.40;1.30;;;-0.50;99.90;;;;;;5022395;28;20376;-56
2023/03/08 06:37:10;;;;;;;3.97;1.60;;;-0.50;99.90;;;;;;5014356;28;20030;-59
2023/03/08 06:39:35;;;;;;;2.90;1.20;;;-0.50;99.90;;;;;;5000979;28;20052;-57
2023/03/08 06:42:02;;;;;;;3.20;1.20;;;-0.60;99.90;;;;;;5020179;28;20033;-58
2023/03/08 06:44:29;;;;;;;2.13;1.23;;;-0.60;99.90;;;;;;5004067;28;20088;-58
2023/03/08 06:46:55;;;;;;;3.90;1.30;;;-0.70;99.90;;;;;;5021674;28;20124;-59
2023/03/08 06:49:22;;;;;;;7.10;2.20;;;-0.60;99.90;;;;;;5018346;28;20060;-57
2023/03/08 06:51:47;;;;;;;4.07;2.13;;;-0.60;99.90;;;;;;5003678;28;20493;-57
2023/03/08 06:54:16;;;;;;;4.10;2.67;;;-0.50;99.90;;;;;;5009757;28;20049;-60
2023/03/08 06:56:46;;;;;;;6.18;2.60;;;-0.40;99.90;;;;;;5019429;28;20045;-58
2023/03/08 06:59:12;;;;;;;4.07;1.60;;;-0.30;99.90;;;;;;5006521;28;20435;-57
2023/03/08 07:01:38;;;;;;;4.55;1.33;;;-0.30;99.90;;;;;;5011831;28;20048;-58
2023/03/08 07:04:04;;;;;;;6.40;1.95;;;-0.30;99.90;;;;;;5016043;28;20041;-58
2023/03/08 07:06:30;;;;;;;5.45;1.80;;;-0.20;99.90;;;;;;4998272;28;20320;-58
2023/03/08 07:08:56;;;;;;;4.17;1.43;;;-0.20;99.90;;;;;;5021366;28;20134;-57
2023/03/08 07:11:22;;;;;;;8.07;1.77;;;-0.20;99.90;;;;;;5023004;28;20037;-59
2023/03/08 07:13:47;;;;;;;3.57;2.13;;;-0.10;99.90;;;;;;5023227;28;20037;-59
2023/03/08 07:16:13;;;;;;;3.43;1.60;;;-0.10;99.90;;;;;;5026613;28;20124;-61
2023/03/08 07:18:40;;;;;;;4.43;1.58;;;0.00;99.90;;;;;;5002192;28;20439;-57
2023/03/08 07:21:06;;;;;;;9.48;2.47;;;0.10;99.90;;;;;;5021961;28;20620;-58
2023/03/08 07:23:32;;;;;;;4.63;2.03;;;0.10;99.90;;;;;;5002265;28;20471;-57
2023/03/08 07:25:58;;;;;;;4.47;1.98;;;0.20;99.90;;;;;;5019394;28;20508;-59
2023/03/08 07:28:24;;;;;;;5.90;1.85;;;0.20;99.90;;;;;;4991871;28;20026;-60
2023/03/08 07:30:51;;;;;;;5.15;1.95;;;0.20;99.90;;;;;;5006459;28;20496;-58
2023/03/08 07:33:18;;;;;;;6.32;2.20;;;0.30;99.90;;;;;;5000554;28;20050;-60
2023/03/08 07:35:44;;;;;;;6.68;1.60;;;0.30;99.90;;;;;;5017632;28;20045;-59
2023/03/08 07:38:11;;;;;;;5.35;1.92;;;0.40;99.90;;;;;;5026921;28;20531;-58
2023/03/08 07:40:37;;;;;;;5.60;2.65;;;0.40;99.90;;;;;;5020727;28;20504;-58
2023/03/08 07:43:03;;;;;;;6.43;3.25;;;0.40;99.90;;;;;;5016154;28;20412;-60
2023/03/08 07:45:29;;;;;;;4.18;2.15;;;0.50;99.90;;;;;;5005542;28;20062;-60
2023/03/08 07:47:55;;;;;;;6.63;2.15;;;0.60;99.90;;;;;;5018918;28;20050;-57
2023/03/08 07:50:21;;;;;;;4.95;1.40;;;0.60;99.90;;;;;;4989161;28;20049;-60
2023/03/08 07:52:47;;;;;;;6.20;1.75;;;0.70;99.90;;;;;;5023228;28;20120;-59
2023/03/08 07:55:13;;;;;;;6.30;1.83;;;0.70;99.90;;;;;;5012921;28;20516;-58
2023/03/08 07:57:39;;;;;;;4.72;1.42;;;0.80;99.90;;;;;;5022615;28;20080;-60
2023/03/08 08:00:07;;;;;;;11.48;3.67;;;0.80;99.90;;;;;;5002995;28;20073;-59
2023/03/08 08:02:34;;;;;;;5.45;1.75;;;0.90;99.90;;;;;;5016372;28;20052;-58
2023/03/08 08:05:00;;;;;;;4.35;2.05;;;0.90;99.90;;;;;;5017564;28;20049;-60
2023/03/08 08:07:26;;;;;;;3.97;1.63;;;1.00;99.90;;;;;;5013766;28;20046;-60
2023/03/08 08:09:52;;;;;;;5.10;1.90;;;1.00;99.90;;;;;;5021590;28;20115;-60
2023/03/08 08:12:18;;;;;;;4.10;1.85;;;1.10;99.90;;;;;;5020606;28;20043;-60
2023/03/08 08:14:44;;;;;;;7.72;2.15;;;1.20;99.90;;;;;;5022619;28;20041;-60
2023/03/08 08:17:10;;;;;;;3.45;1.55;;;1.20;99.90;;;;;;5015553;28;20049;-58
2023/03/08 08:19:37;;;;;;;3.20;1.67;;;1.20;99.90;;;;;;4997466;28;20049;-60
2023/03/08 08:22:03;;;;;;;3.58;2.30;;;1.20;99.90;;;;;;5011035;28;20507;-58
2023/03/08 08:24:31;;;;;;;4.57;2.05;;;1.30;99.90;;;;;;5002589;28;20061;-58
2023/03/08 08:26:57;;;;;;;3.78;2.10;;;1.30;99.90;;;;;;5015855;28;20047;-57
2023/03/08 08:29:23;;;;;;;7.07;2.78;;;1.40;99.90;;;;;;5016223;28;20125;-60
2023/03/08 08:31:51;;;;;;;4.68;2.58;;;1.40;99.90;;;;;;5016760;28;20120;-58
2023/03/08 08:34:20;;;;;;;6.25;2.85;;;1.40;99.90;;;;;;5014520;28;20420;-60
2023/03/08 08:36:46;;;;;;;3.83;2.35;;;1.50;99.90;;;;;;5021962;28;20459;-58
2023/03/08 08:39:12;;;;;;;5.80;2.50;;;1.50;99.90;;;;;;5018846;28;20055;-58
2023/03/08 08:41:37;;;;;;;4.95;2.72;;;1.60;99.90;;;;;;5020757;28;20164;-58
2023/03/08 08:44:03;;;;;;;5.70;2.78;;;1.60;99.90;;;;;;5005165;28;20038;-60
2023/03/08 08:46:32;;;;;;;7.47;3.08;;;1.70;99.90;;;;;;5016894;28;20041;-60
2023/03/08 08:48:59;;;;;;;5.72;3.00;;;1.70;99.90;;;;;;5018207;28;20157;-60
2023/03/08 08:51:25;;;;;;;6.93;3.20;;;1.80;99.90;;;;;;4998701;28;20285;-58
2023/03/08 08:53:51;;;;;;;5.32;2.90;;;1.80;99.90;;;;;;5019487;28;20053;-60
2023/03/08 08:56:23;;;;;;;4.82;2.95;;;1.90;99.90;;;;;;5002353;28;20119;-59
2023/03/08 08:58:49;;;;;;;7.13;3.25;;;1.90;99.90;;;;;;5017741;28;20042;-60
2023/03/08 09:01:24;;;;;;;7.13;3.60;;;2.00;99.90;;;;;;5018401;28;20033;-60
2023/03/08 09:03:50;;;;;;;5.57;4.00;;;2.10;99.90;;;;;;5005482;28;20049;-58
2023/03/08 09:06:20;;;;;;;5.10;3.60;;;2.10;99.90;;;;;;5012052;28;20377;-60
2023/03/08 09:08:54;;;;;;;11.65;3.10;;;2.20;99.90;;;;;;5026823;28;20415;-60
2023/03/08 09:11:20;;;;;;;8.95;3.63;;;2.20;99.90;;;;;;5014214;28;20048;-58
2023/03/08 09:13:47;;;;;;;5.85;4.10;;;2.30;99.90;;;;;;4998538;28;20505;-60
2023/03/08 09:16:27;;;;;;;11.50;4.55;;;2.30;99.90;;;;;;5019376;28;20053;-57
2023/03/08 09:18:57;;;;;;;4.32;3.10;;;2.40;99.90;;;;;;5020907;28;20045;-60
2023/03/08 09:21:24;;;;;;;10.68;3.53;;;2.40;99.90;;;;;;5018655;28;20056;-58
2023/03/08 09:23:50;;;;;;;6.70;3.60;;;2.40;99.90;;;;;;5019338;28;20045;-59
2023/03/08 09:26:15;;;;;;;8.38;3.63;;;2.50;99.90;;;;;;5007746;28;20111;-58
2023/03/08 09:28:41;;;;;;;5.82;3.90;;;2.60;99.90;;;;;;5013435;28;20042;-60
2023/03/08 09:31:11;;;;;;;7.57;4.10;;;2.70;99.90;;;;;;5019106;28;20072;-59
2023/03/08 09:33:42;;;;;;;6.95;3.88;;;2.80;99.90;;;;;;5021313;28;20397;-58
2023/03/08 09:36:08;;;;;;;5.07;3.10;;;2.80;99.90;;;;;;5016829;28;20088;-60
2023/03/08 09:38:34;;;;;;;5.47;3.33;;;2.90;99.90;;;;;;5018189;28;20041;-59
2023/03/08 09:41:15;;;;;;;9.32;3.25;;;3.00;99.90;;;;;;5005211;28;20127;-60
2023/03/08 09:43:59;;;;;;;6.75;3.50;;;3.00;99.90;;;;;;5018752;28;20099;-60
2023/03/08 09:46:51;;;;;;;7.05;3.45;;;3.10;99.90;;;;;;5022182;28;20050;-59
2023/03/08 09:49:29;;;;;;;5.63;2.72;;;3.20;99.90;;;;;;4982084;28;20079;-59
2023/03/08 09:52:22;;;;;;;5.47;2.83;;;3.30;99.90;;;;;;5018976;28;20055;-59
2023/03/08 09:54:50;;;;;;;3.83;2.85;;;3.40;99.90;;;;;;5008399;28;20050;-60
2023/03/08 09:57:22;;;;;;;8.27;2.70;;;3.50;99.90;;;;;;5002383;28;20049;-59
2023/03/08 09:59:58;;;;;;;4.72;2.63;;;3.60;99.90;;;;;;4997906;28;20033;-60
2023/03/08 10:02:30;;;;;;;6.60;2.47;;;3.60;99.90;;;;;;5017785;28;20029;-57
2023/03/08 10:05:23;;;;;;;7.43;2.50;;;3.60;99.90;;;;;;5019069;28;24726;-61
2023/03/08 10:07:58;;;;;;;6.53;2.70;;;3.80;99.90;;;;;;5019742;28;20475;-60
2023/03/08 10:10:49;;;;;;;6.07;2.33;;;3.90;99.90;;;;;;5017129;28;20034;-60
2023/03/08 10:13:36;;;;;;;6.93;2.70;;;4.00;99.90;;;;;;5016282;28;20037;-60
2023/03/08 10:16:05;;;;;;;7.35;2.70;;;4.10;99.90;;;;;;5024372;28;20612;-60
2023/03/08 10:18:41;;;;;;;7.60;3.30;;;4.20;99.90;;;;;;5007962;28;20049;-61
2023/03/08 10:21:12;;;;;;;6.75;3.80;;;4.20;99.90;;;;;;5023178;28;20417;-60
2023/03/08 10:23:40;;;;;;;7.95;3.10;;;4.20;99.90;;;;;;5025773;28;20045;-59
2023/03/08 10:26:11;;;;;;;4.65;2.80;;;4.30;99.90;;;;;;5021561;28;22100;-60
2023/03/08 10:28:36;;;;;;;4.97;1.60;;;4.30;99.90;;;;;;5024641;28;20041;-60
2023/03/08 10:31:18;;;;;;;7.35;1.05;;;4.30;99.90;;;;;;5023382;28;20053;-61
2023/03/08 10:33:44;;;;;;;3.17;1.98;;;4.20;99.90;;;;;;5021943;28;20064;-60
2023/03/08 10:36:20;;;;;;;9.38;1.98;;;4.20;99.90;;;;;;5025072;28;20064;-59
2023/03/08 10:39:19;;;;;;;6.00;2.30;;;4.30;99.90;;;;;;5026808;28;20045;-60
2023/03/08 10:41:54;;;;;;;7.78;2.63;;;4.30;99.90;;;;;;4993593;28;20058;-60
2023/03/08 10:44:29;;;;;;;4.00;1.95;;;4.40;99.90;;;;;;4999642;28;20120;-60
2023/03/08 10:46:55;;;;;;;3.65;1.75;;;4.40;99.90;;;;;;5025442;28;20389;-61
2023/03/08 10:49:23;;;;;;;3.80;1.65;;;4.40;99.90;;;;;;5025349;28;20040;-60
2023/03/08 10:52:00;;;;;;;5.85;2.38;;;4.50;99.90;;;;;;5014354;28;20045;-61
2023/03/08 10:54:27;;;;;;;6.70;2.30;;;4.50;99.90;;;;;;5011892;28;20673;-60
2023/03/08 10:56:58;;;;;;;10.52;4.38;;;4.50;99.90;;;;;;5023913;28;20072;-60
2023/03/08 10:59:33;;;;;;;12.93;8.45;;;4.60;99.90;;;;;;5018773;28;20045;-60
2023/03/08 11:02:02;;;;;;;19.40;13.02;;;4.60;99.90;;;;;;5023967;28;20060;-60
2023/03/08 11:04:29;;;;;;;6.53;4.50;;;4.60;99.90;;;;;;5017847;28;20073;-59
2023/03/08 11:06:55;;;;;;;8.05;2.10;;;4.70;99.90;;;;;;5003188;28;20041;-61
2023/03/08 11:09:28;;;;;;;5.20;1.98;;;4.80;99.90;;;;;;5019889;28;20039;-61
2023/03/08 11:11:59;;;;;;;9.80;2.03;;;4.80;99.90;;;;;;5018202;28;20229;-61
2023/03/08 11:14:25;;;;;;;6.82;2.50;;;4.90;99.90;;;;;;5014943;28;20408;-60
2023/03/08 11:17:24;;;;;;;3.55;1.67;;;5.00;99.90;;;;;;5017314;28;20208;-59
2023/03/08 11:20:09;;;;;;;2.85;1.40;;;5.00;99.90;;;;;;5033831;28;20490;-60
2023/03/08 11:23:10;;;;;;;2.75;1.40;;;5.00;99.90;;;;;;5019965;28;20573;-60
2023/03/08 11:26:15;;;;;;;4.72;1.10;;;5.10;99.90;;;;;;5020310;28;20483;-58
2023/03/08 11:28:53;;;;;;;3.30;1.17;;;5.10;99.90;;;;;;4983038;28;20377;-61
2023/03/08 11:31:34;;;;;;;3.20;1.05;;;5.10;99.90;;;;;;5004547;28;20468;-59
2023/03/08 11:34:21;;;;;;;2.40;0.90;;;5.10;99.90;;;;;;5019508;28;20096;-61
2023/03/08 11:36:59;;;;;;;4.32;1.10;;;5.00;99.90;;;;;;5022502;28;20053;-61
2023/03/08 11:39:33;;;;;;;4.00;0.90;;;5.00;99.90;;;;;;5017564;28;20428;-60
2023/03/08 11:42:27;;;;;;;8.00;1.83;;;5.10;99.90;;;;;;5015255;28;20046;-61
2023/03/08 11:45:07;;;;;;;5.70;1.30;;;5.10;99.90;;;;;;5004354;28;20054;-60
2023/03/08 11:48:07;;;;;;;2.63;1.10;;;5.10;99.90;;;;;;5001109;28;20038;-59
2023/03/08 11:50:35;;;;;;;3.53;1.20;;;5.20;99.90;;;;;;5013505;28;20049;-61
2023/03/08 11:53:20;;;;;;;4.55;1.10;;;5.20;99.90;;;;;;5019991;28;20500;-59
2023/03/08 11:56:04;;;;;;;6.10;1.10;;;5.30;99.90;;;;;;5017996;28;20041;-61
2023/03/08 11:58:48;;;;;;;5.03;1.35;;;5.30;99.90;;;;;;5022266;28;20494;-60
2023/03/08 12:01:24;;;;;;;3.10;1.30;;;5.40;99.90;;;;;;5020034;28;20042;-60
2023/03/08 12:03:54;;;;;;;3.33;1.10;;;5.50;99.90;;;;;;5001002;28;20064;-60
2023/03/08 12:06:24;;;;;;;3.85;1.10;;;5.50;99.90;;;;;;5006542;28;20052;-61
2023/03/08 12:08:57;;;;;;;5.43;1.55;;;5.50;99.90;;;;;;4999876;28;20124;-61
2023/03/08 12:11:40;;;;;;;4.20;1.27;;;5.50;99.90;;;;;;5022729;28;20045;-61
2023/03/08 12:14:29;;;;;;;6.95;1.20;;;5.40;99.90;;;;;;5018027;28;20045;-61
2023/03/08 12:17:16;;;;;;;2.30;1.10;;;5.40;99.90;;;;;;5019492;28;20069;-61
2023/03/08 12:19:44;;;;;;;4.30;1.15;;;5.30;99.90;;;;;;5020195;28;20500;-61
2023/03/08 12:22:32;;;;;;;1.77;0.70;;;5.40;99.90;;;;;;5014103;28;20124;-61
2023/03/08 12:25:25;;;;;;;2.67;0.82;;;5.40;99.90;;;;;;5019097;28;20077;-61
2023/03/08 12:28:04;;;;;;;2.67;1.20;;;5.40;99.90;;;;;;5019565;28;20136;-61
2023/03/08 12:31:04;;;;;;;7.32;2.70;;;5.40;99.90;;;;;;5018352;28;20045;-61
2023/03/08 12:33:31;;;;;;;7.38;3.08;;;5.50;99.90;;;;;;5000114;28;20053;-61
2023/03/08 12:36:04;;;;;;;2.25;1.33;;;5.60;99.90;;;;;;5010515;28;20122;-60
2023/03/08 12:38:44;;;;;;;4.75;1.40;;;5.60;99.90;;;;;;5019665;28;20049;-60
2023/03/08 12:41:28;;;;;;;1.95;1.00;;;5.70;99.90;;;;;;5012457;28;20762;-60
2023/03/08 12:44:23;;;;;;;3.60;1.20;;;6.00;99.90;;;;;;5014073;28;20496;-59
2023/03/08 12:46:56;;;;;;;3.47;0.93;;;6.10;99.90;;;;;;5016176;28;20041;-61
2023/03/08 12:49:30;;;;;;;4.22;1.15;;;6.30;99.90;;;;;;5018116;28;20041;-61
2023/03/08 12:52:21;;;;;;;2.08;0.80;;;6.30;99.90;;;;;;5004744;28;20033;-61
2023/03/08 12:55:30;;;;;;;2.42;1.02;;;6.10;99.90;;;;;;5027176;28;20504;-58
2023/03/08 12:57:59;;;;;;;5.65;1.05;;;5.90;99.90;;;;;;5014918;28;20038;-60
2023/03/08 13:00:27;;;;;;;2.22;0.90;;;5.80;99.90;;;;;;5024395;28;20033;-60
2023/03/08 13:03:11;;;;;;;3.60;0.90;;;5.80;99.90;;;;;;5009698;28;20550;-61
2023/03/08 13:05:40;;;;;;;5.25;1.35;;;5.80;99.90;;;;;;5017034;28;20256;-61
2023/03/08 13:08:06;;;;;;;1.98;0.70;;;5.90;99.90;;;;;;5013799;28;20045;-60
2023/03/08 13:10:35;;;;;;;4.65;1.05;;;6.00;99.90;;;;;;5016864;28;20056;-61